Time;durP1;ratioP1;P1;durP2;ratioP2;P2;SDS_P1;SDS_P2;PMS_P1;PMS_P2;Temp;Humidity;BMP_temperature;BMP_pressure;BME280_temperature;BME280_humidity;BME280_pressure;Samples;Min_cycle;Max_cycle;Signal;HPM_P1;HPM_P2
2023/10/05 00:03:50;;;;;;;1.48;1.45;;;16.30;99.90;;;;;;4996157;28;20268;-80
2023/10/05 00:06:17;;;;;;;0.43;0.30;;;15.90;99.90;;;;;;4982862;28;20551;-76
2023/10/05 00:08:49;;;;;;;0.10;0.10;;;15.80;99.90;;;;;;4999895;28;20488;-77
2023/10/05 00:11:53;;;;;;;0.22;0.22;;;15.80;99.90;;;;;;5000384;28;20048;-78
2023/10/05 00:14:12;;;;;;;0.10;0.10;;;15.70;99.90;;;;;;4999602;28;20487;-85
2023/10/05 00:16:44;;;;;;;0.10;0.10;;;15.70;99.90;;;;;;5000080;28;20054;-75
2023/10/05 00:19:13;;;;;;;0.10;0.10;;;15.90;99.90;;;;;;4998420;28;20034;-74
2023/10/05 00:21:51;;;;;;;1.13;1.13;;;15.40;99.90;;;;;;4999815;28;20384;-85
2023/10/05 00:24:54;;;;;;;0.10;0.10;;;15.30;99.90;;;;;;4999897;28;20401;-86
2023/10/05 00:27:15;;;;;;;0.25;0.25;;;15.30;99.90;;;;;;4998396;28;20045;-81
2023/10/05 00:29:41;;;;;;;0.10;0.10;;;15.30;99.90;;;;;;4999351;28;20050;-78
2023/10/05 00:35:14;;;;;;;0.20;0.20;;;15.20;99.90;;;;;;4981021;28;20046;-76
2023/10/05 00:37:44;;;;;;;0.10;0.10;;;15.20;99.90;;;;;;4980645;28;20030;-80
2023/10/05 00:40:14;;;;;;;0.20;0.20;;;15.10;99.90;;;;;;4989841;28;20060;-76
2023/10/05 00:42:40;;;;;;;0.38;0.38;;;15.70;99.90;;;;;;5019422;28;20121;-84
2023/10/05 00:45:11;;;;;;;0.10;0.10;;;15.00;99.90;;;;;;5019507;28;20526;-76
2023/10/05 00:47:37;;;;;;;0.10;0.10;;;15.00;99.90;;;;;;5021422;28;20076;-78
2023/10/05 00:50:04;;;;;;;0.30;0.30;;;14.90;99.90;;;;;;5022916;28;20068;-83
2023/10/05 00:52:30;;;;;;;0.10;0.10;;;14.90;99.90;;;;;;5018847;28;20431;-79
2023/10/05 00:54:59;;;;;;;0.10;0.10;;;14.80;99.90;;;;;;5018141;28;20037;-86
2023/10/05 00:57:26;;;;;;;0.75;0.75;;;14.60;99.90;;;;;;5018968;28;20017;-73
2023/10/05 01:02:22;;;;;;;0.10;0.10;;;12.10;99.90;;;;;;5019187;28;20389;-77
2023/10/05 01:05:00;;;;;;;0.10;0.10;;;14.50;99.90;;;;;;5017907;28;20030;-84
2023/10/05 01:07:43;;;;;;;0.30;0.30;;;14.50;99.90;;;;;;5018167;28;20207;-81
2023/10/05 01:12:56;;;;;;;0.15;0.15;;;14.40;99.90;;;;;;5071136;28;20063;-81
2023/10/05 01:15:30;;;;;;;0.10;0.10;;;14.20;99.90;;;;;;5082015;28;20078;-82
2023/10/05 01:17:56;;;;;;;0.10;0.10;;;14.20;99.90;;;;;;5081430;28;20021;-93
2023/10/05 01:20:22;;;;;;;0.20;0.20;;;14.10;99.90;;;;;;5082296;28;20028;-88
2023/10/05 01:22:55;;;;;;;0.30;0.30;;;14.00;99.90;;;;;;5085686;28;20152;-78
2023/10/05 01:25:21;;;;;;;0.20;0.20;;;;;;;;;;5083671;28;20024;-76
2023/10/05 01:27:50;;;;;;;0.22;0.22;;;13.90;99.90;;;;;;5087399;28;20028;-77
2023/10/05 01:30:16;;;;;;;0.40;0.40;;;13.90;99.90;;;;;;5086423;28;20036;-76
2023/10/05 01:32:48;;;;;;;1.58;1.58;;;14.30;99.90;;;;;;5082192;28;20643;-84
2023/10/05 01:35:15;;;;;;;0.10;0.10;;;13.80;99.90;;;;;;5080805;28;20024;-82
2023/10/05 01:37:44;;;;;;;0.20;0.20;;;13.70;99.90;;;;;;5080543;28;20312;-78
2023/10/05 01:40:16;;;;;;;0.10;0.10;;;13.70;99.90;;;;;;5080427;28;20403;-74
2023/10/05 01:42:47;;;;;;;0.15;0.15;;;13.60;99.90;;;;;;5063222;28;20028;-80
2023/10/05 01:45:22;;;;;;;0.10;0.10;;;13.60;99.90;;;;;;5081089;28;20023;-79
2023/10/05 01:47:49;;;;;;;0.10;0.10;;;13.50;99.90;;;;;;5081472;28;20118;-82
2023/10/05 01:50:19;;;;;;;0.20;0.20;;;13.60;99.90;;;;;;5081175;28;20027;-77
2023/10/05 01:52:52;;;;;;;0.55;0.55;;;13.50;99.90;;;;;;5081091;28;20043;-85
2023/10/05 01:55:21;;;;;;;0.10;0.10;;;13.40;99.90;;;;;;5082289;28;20020;-81
2023/10/05 01:58:28;;;;;;;0.13;0.13;;;13.40;99.90;;;;;;5063963;28;20032;-76
2023/10/05 02:00:54;;;;;;;0.68;0.68;;;13.40;99.90;;;;;;5089691;28;20069;-82
2023/10/05 02:03:26;;;;;;;0.30;0.30;;;13.40;99.90;;;;;;5082883;28;20285;-87
2023/10/05 02:05:58;;;;;;;0.10;0.10;;;14.30;99.90;;;;;;5083065;28;20028;-81
2023/10/05 02:08:27;;;;;;;0.10;0.10;;;13.30;99.90;;;;;;5081934;28;20055;-78
2023/10/05 02:10:53;;;;;;;0.52;0.52;;;13.30;99.90;;;;;;5080534;28;20316;-76
2023/10/05 02:13:32;;;;;;;0.13;0.13;;;13.30;99.90;;;;;;5062003;28;20264;-76
2023/10/05 02:16:00;;;;;;;0.93;0.93;;;13.20;99.90;;;;;;5091268;28;20139;-76
2023/10/05 02:18:38;;;;;;;0.10;0.10;;;13.10;99.90;;;;;;5100520;28;20050;-77
2023/10/05 02:21:30;;;;;;;0.75;0.73;;;13.10;99.90;;;;;;5084775;28;20040;-77
2023/10/05 02:24:10;;;;;;;0.10;0.10;;;13.00;99.90;;;;;;5079028;28;20080;-76
2023/10/05 02:29:43;;;;;;;0.10;0.10;;;12.90;99.90;;;;;;5050234;28;20037;-76
2023/10/05 02:32:21;;;;;;;0.15;0.15;;;13.00;99.90;;;;;;5048646;28;20550;-76
2023/10/05 02:35:24;;;;;;;0.73;0.73;;;13.00;99.90;;;;;;5063342;28;20029;-76
2023/10/05 02:37:53;;;;;;;0.10;0.10;;;12.50;99.90;;;;;;5042846;28;20021;-76
2023/10/05 02:40:26;;;;;;;0.17;0.17;;;12.80;99.90;;;;;;5056456;28;20017;-77
2023/10/05 02:43:15;;;;;;;2.15;2.05;;;12.70;99.90;;;;;;5053678;28;20108;-77
2023/10/05 02:45:42;;;;;;;3.97;3.78;;;12.70;99.90;;;;;;5057672;28;20028;-77
2023/10/05 02:48:10;;;;;;;0.30;0.30;;;12.60;99.90;;;;;;5058148;28;20028;-75
2023/10/05 02:50:38;;;;;;;0.10;0.10;;;12.60;99.90;;;;;;5054193;28;20031;-76
2023/10/05 02:53:08;;;;;;;0.10;0.10;;;12.60;99.90;;;;;;5043752;28;20071;-76
2023/10/05 02:55:36;;;;;;;0.57;0.57;;;12.50;99.90;;;;;;5042396;28;20126;-76
2023/10/05 02:58:05;;;;;;;0.63;0.63;;;12.60;99.90;;;;;;5042342;28;20037;-76
2023/10/05 03:00:34;;;;;;;0.10;0.10;;;12.50;99.90;;;;;;5044610;28;20060;-75
2023/10/05 03:03:07;;;;;;;1.10;1.10;;;12.40;99.90;;;;;;5057135;28;20182;-76
2023/10/05 03:05:41;;;;;;;4.97;4.57;;;12.40;99.90;;;;;;5072452;28;20036;-77
2023/10/05 03:08:10;;;;;;;0.10;0.10;;;12.50;99.90;;;;;;5085723;28;20332;-76
2023/10/05 03:10:37;;;;;;;0.10;0.10;;;12.40;99.90;;;;;;5068612;28;20036;-76
2023/10/05 03:13:04;;;;;;;0.10;0.10;;;12.50;99.90;;;;;;5084405;28;20024;-76
2023/10/05 03:15:34;;;;;;;1.40;1.38;;;14.40;99.90;;;;;;5102824;28;20016;-76
2023/10/05 03:18:15;;;;;;;0.10;0.10;;;12.40;99.90;;;;;;5099709;28;20024;-78
2023/10/05 03:20:44;;;;;;;0.25;0.25;;;12.40;99.90;;;;;;5071493;28;20051;-76
2023/10/05 03:23:16;;;;;;;0.10;0.10;;;12.40;99.90;;;;;;5097541;28;20274;-77
2023/10/05 03:25:43;;;;;;;0.10;0.10;;;12.30;99.90;;;;;;5094155;28;20032;-76
2023/10/05 03:28:13;;;;;;;0.30;0.30;;;12.20;99.90;;;;;;5078908;28;20095;-76
2023/10/05 03:30:48;;;;;;;0.10;0.10;;;12.30;99.90;;;;;;5099566;28;20051;-76
2023/10/05 03:33:17;;;;;;;0.20;0.20;;;12.30;99.90;;;;;;5088548;28;20024;-76
2023/10/05 03:35:45;;;;;;;0.17;0.17;;;12.30;99.90;;;;;;5100893;28;20066;-75
2023/10/05 03:38:12;;;;;;;0.10;0.10;;;12.30;99.90;;;;;;5100717;28;20058;-75
2023/10/05 03:40:43;;;;;;;0.10;0.10;;;12.30;99.90;;;;;;5091894;28;20073;-76
2023/10/05 03:43:10;;;;;;;0.10;0.10;;;12.20;99.90;;;;;;5103989;28;20482;-76
2023/10/05 03:45:39;;;;;;;0.57;0.57;;;12.20;99.90;;;;;;5104255;28;20628;-77
2023/10/05 03:48:07;;;;;;;0.10;0.10;;;11.60;99.90;;;;;;5104509;28;20133;-77
2023/10/05 03:50:32;;;;;;;1.27;0.88;;;12.20;99.90;;;;;;5106031;28;20020;-79
2023/10/05 03:52:58;;;;;;;1.23;1.15;;;12.20;99.90;;;;;;5079931;28;20028;-76
2023/10/05 03:55:34;;;;;;;0.10;0.10;;;12.20;99.90;;;;;;5108119;28;20106;-75
2023/10/05 03:58:01;;;;;;;0.10;0.10;;;12.10;99.90;;;;;;5108383;28;20062;-77
2023/10/05 04:00:35;;;;;;;0.90;0.90;;;12.10;99.90;;;;;;5099991;28;20031;-75
2023/10/05 04:03:02;;;;;;;0.30;0.30;;;12.20;99.90;;;;;;5102392;28;20043;-77
2023/10/05 04:05:39;;;;;;;0.10;0.10;;;12.80;99.90;;;;;;5092297;28;20039;-76
2023/10/05 04:08:16;;;;;;;0.20;0.20;;;12.10;99.90;;;;;;5102948;28;20152;-75
2023/10/05 04:10:51;;;;;;;0.10;0.10;;;12.10;99.90;;;;;;5102250;28;20028;-76
2023/10/05 04:13:20;;;;;;;0.40;0.40;;;12.10;99.90;;;;;;5104513;28;20039;-75
2023/10/05 04:15:47;;;;;;;0.25;0.25;;;15.40;99.90;;;;;;5106021;28;20100;-76
2023/10/05 04:18:15;;;;;;;0.10;0.10;;;12.10;99.90;;;;;;5101470;28;20293;-76
2023/10/05 04:20:44;;;;;;;0.68;0.68;;;12.20;99.90;;;;;;5092528;28;20035;-76
2023/10/05 04:23:25;;;;;;;0.17;0.17;;;12.20;99.90;;;;;;5099426;28;20182;-76
2023/10/05 04:25:52;;;;;;;0.20;0.20;;;12.10;99.90;;;;;;5098110;28;20020;-77
2023/10/05 04:28:29;;;;;;;0.10;0.10;;;12.10;99.90;;;;;;5083121;28;20034;-75
2023/10/05 04:30:57;;;;;;;0.10;0.10;;;12.10;99.90;;;;;;5094661;28;20042;-75
2023/10/05 04:33:26;;;;;;;0.40;0.40;;;12.10;99.90;;;;;;5099771;28;20482;-76
2023/10/05 04:35:53;;;;;;;5.90;5.20;;;12.00;99.90;;;;;;5092532;28;20282;-76
2023/10/05 04:38:25;;;;;;;2.45;2.25;;;12.70;99.90;;;;;;5088568;28;20527;-76
2023/10/05 04:40:52;;;;;;;0.63;0.60;;;12.00;99.90;;;;;;5075156;28;20028;-77
2023/10/05 04:43:21;;;;;;;0.10;0.10;;;12.00;99.90;;;;;;5074378;28;20038;-75
2023/10/05 04:45:47;;;;;;;0.20;0.20;;;11.60;99.90;;;;;;5072804;28;20070;-76
2023/10/05 04:48:16;;;;;;;0.20;0.20;;;12.10;99.90;;;;;;5079592;28;20103;-77
2023/10/05 04:50:42;;;;;;;2.50;2.40;;;13.00;99.90;;;;;;5096510;28;20245;-77
2023/10/05 04:53:13;;;;;;;0.10;0.10;;;12.10;99.90;;;;;;5093090;28;20035;-76
2023/10/05 04:55:46;;;;;;;0.43;0.43;;;12.20;99.90;;;;;;5097009;28;20105;-76
2023/10/05 04:58:21;;;;;;;0.13;0.13;;;12.20;99.90;;;;;;5078127;28;20078;-77
2023/10/05 05:01:28;;;;;;;0.10;0.10;;;12.20;99.90;;;;;;5094921;28;20380;-77
2023/10/05 05:03:56;;;;;;;0.20;0.20;;;12.20;99.90;;;;;;5101826;28;20052;-76
2023/10/05 05:06:32;;;;;;;0.28;0.28;;;12.20;99.90;;;;;;5100662;28;20292;-76
2023/10/05 05:09:00;;;;;;;0.10;0.10;;;12.20;99.90;;;;;;5099845;28;20031;-77
2023/10/05 05:11:27;;;;;;;0.10;0.10;;;12.20;99.90;;;;;;5099872;28;20040;-75
2023/10/05 05:14:04;;;;;;;0.82;0.82;;;12.10;99.90;;;;;;5099509;28;20032;-76
2023/10/05 05:16:30;;;;;;;0.63;0.63;;;12.10;99.90;;;;;;5098257;28;20024;-77
2023/10/05 05:18:56;;;;;;;0.10;0.10;;;12.10;99.90;;;;;;5095002;28;20067;-75
2023/10/05 05:21:26;;;;;;;0.20;0.20;;;12.10;99.90;;;;;;5103859;28;20077;-76
2023/10/05 05:24:09;;;;;;;0.43;0.43;;;11.80;99.90;;;;;;5099124;28;20133;-76
2023/10/05 05:26:46;;;;;;;0.10;0.10;;;12.10;99.90;;;;;;5091590;28;20745;-76
2023/10/05 05:29:13;;;;;;;0.50;0.50;;;12.10;99.90;;;;;;5090295;28;20053;-76
2023/10/05 05:31:41;;;;;;;1.27;1.27;;;12.30;99.90;;;;;;5085921;28;20028;-75
2023/10/05 05:34:07;;;;;;;0.10;0.10;;;12.20;99.90;;;;;;5085970;28;20036;-76
2023/10/05 05:36:36;;;;;;;2.28;2.17;;;12.40;99.90;;;;;;5088200;28;20620;-76
2023/10/05 05:39:04;;;;;;;0.60;0.60;;;12.20;99.90;;;;;;5088848;28;20212;-76
2023/10/05 05:41:41;;;;;;;0.10;0.10;;;12.30;99.90;;;;;;5087908;28;20089;-76
2023/10/05 05:44:07;;;;;;;1.40;1.40;;;12.20;99.90;;;;;;5088152;28;20016;-76
2023/10/05 05:46:52;;;;;;;0.10;0.10;;;12.20;99.90;;;;;;5075753;28;20140;-79
2023/10/05 05:49:22;;;;;;;0.10;0.10;;;12.20;99.90;;;;;;5092912;28;20070;-76
2023/10/05 05:51:48;;;;;;;0.10;0.10;;;13.00;99.90;;;;;;5097516;28;20039;-77
2023/10/05 05:54:16;;;;;;;2.78;2.65;;;12.30;99.90;;;;;;5096045;28;20040;-76
2023/10/05 05:56:42;;;;;;;1.80;1.70;;;12.40;99.90;;;;;;5096247;28;20020;-77
2023/10/05 05:59:09;;;;;;;6.03;4.03;;;12.40;99.90;;;;;;5101639;28;20024;-75
2023/10/05 06:01:44;;;;;;;0.55;0.55;;;12.40;99.90;;;;;;5078092;28;20036;-76
2023/10/05 06:04:25;;;;;;;5.70;5.15;;;12.40;99.90;;;;;;5084271;28;20016;-76
2023/10/05 06:06:57;;;;;;;6.80;3.70;;;12.50;99.90;;;;;;5104567;28;20107;-76
2023/10/05 06:09:27;;;;;;;0.10;0.10;;;10.00;99.90;;;;;;5100583;28;20164;-78
2023/10/05 06:12:02;;;;;;;0.20;0.20;;;12.60;99.90;;;;;;5106792;28;20018;-76
2023/10/05 06:14:52;;;;;;;0.20;0.20;;;12.70;99.90;;;;;;5078527;28;20437;-77
2023/10/05 06:17:19;;;;;;;0.10;0.10;;;12.60;99.90;;;;;;5084937;28;20081;-76
2023/10/05 06:19:47;;;;;;;0.10;0.10;;;12.80;99.90;;;;;;5075045;28;20026;-76
2023/10/05 06:22:14;;;;;;;1.13;1.13;;;12.90;99.90;;;;;;5092681;28;20051;-81
2023/10/05 06:24:42;;;;;;;0.68;0.68;;;13.00;99.90;;;;;;5086587;28;20020;-84
2023/10/05 06:27:08;;;;;;;0.10;0.10;;;13.10;99.90;;;;;;5083927;28;20092;-80
2023/10/05 06:29:34;;;;;;;0.10;0.10;;;13.10;99.90;;;;;;5082414;28;20044;-85
2023/10/05 06:32:00;;;;;;;0.60;0.60;;;13.20;99.90;;;;;;5080874;28;20042;-82
2023/10/05 06:34:30;;;;;;;0.10;0.10;;;13.30;99.90;;;;;;5080337;28;20036;-83
2023/10/05 06:36:56;;;;;;;0.10;0.10;;;13.30;99.90;;;;;;5080267;28;20024;-78
2023/10/05 06:39:27;;;;;;;0.10;0.10;;;13.40;99.90;;;;;;5080378;28;20027;-86
2023/10/05 06:41:53;;;;;;;0.10;0.10;;;13.40;99.90;;;;;;5079725;28;20023;-80
2023/10/05 06:44:20;;;;;;;0.40;0.40;;;13.50;99.90;;;;;;5084635;28;20260;-79
2023/10/05 06:46:46;;;;;;;0.20;0.20;;;13.80;99.90;;;;;;5065527;28;20032;-82
2023/10/05 06:49:13;;;;;;;0.20;0.20;;;13.60;99.90;;;;;;5082234;28;20581;-76
2023/10/05 06:51:43;;;;;;;0.30;0.30;;;13.70;99.90;;;;;;5083968;28;20020;-87
2023/10/05 06:54:09;;;;;;;0.10;0.10;;;13.80;99.90;;;;;;5081260;28;20323;-76
2023/10/05 06:56:35;;;;;;;0.10;0.10;;;14.00;99.90;;;;;;5080009;28;20093;-80
2023/10/05 06:59:03;;;;;;;0.20;0.20;;;14.10;99.90;;;;;;5060973;28;20518;-84
2023/10/05 07:01:29;;;;;;;0.20;0.20;;;14.20;99.90;;;;;;5078999;28;20397;-83
2023/10/05 07:03:57;;;;;;;0.30;0.30;;;14.30;99.90;;;;;;5079466;28;20551;-87
2023/10/05 07:06:23;;;;;;;0.10;0.10;;;14.40;99.90;;;;;;5079147;28;20032;-84
2023/10/05 07:08:52;;;;;;;0.40;0.40;;;14.40;99.90;;;;;;5079530;28;20037;-81
2023/10/05 07:11:20;;;;;;;0.10;0.10;;;14.90;99.90;;;;;;5080079;28;20512;-84
2023/10/05 07:13:48;;;;;;;0.10;0.10;;;14.60;99.90;;;;;;5078702;28;20051;-76
2023/10/05 07:16:15;;;;;;;0.52;0.52;;;14.70;99.90;;;;;;5060504;28;20055;-85
2023/10/05 07:18:42;;;;;;;0.10;0.10;;;14.80;99.90;;;;;;5079569;28;20142;-80
2023/10/05 07:21:08;;;;;;;0.30;0.30;;;14.90;99.90;;;;;;5079468;28;20041;-77
2023/10/05 07:23:38;;;;;;;0.38;0.38;;;14.90;99.90;;;;;;5078967;28;20510;-78
2023/10/05 07:26:06;;;;;;;24.02;22.13;;;15.00;99.90;;;;;;5079851;28;20218;-83
2023/10/05 07:28:35;;;;;;;0.40;0.40;;;14.70;99.90;;;;;;5078339;28;20039;-84
2023/10/05 07:31:03;;;;;;;2.72;2.00;;;15.10;99.90;;;;;;5060047;28;20047;-83
2023/10/05 07:33:30;;;;;;;0.15;0.15;;;15.20;99.90;;;;;;5060323;28;20032;-78
2023/10/05 07:35:56;;;;;;;0.20;0.20;;;15.20;99.90;;;;;;5078455;28;20089;-76
2023/10/05 07:38:26;;;;;;;0.10;0.10;;;15.40;99.90;;;;;;5078712;28;20462;-78
2023/10/05 07:40:53;;;;;;;1.92;1.58;;;13.30;99.90;;;;;;5079062;28;20050;-76
2023/10/05 07:43:19;;;;;;;1.27;1.27;;;15.70;99.90;;;;;;5062212;28;20035;-80
2023/10/05 07:45:45;;;;;;;0.25;0.25;;;15.80;99.90;;;;;;5067870;28;20024;-77
2023/10/05 07:48:14;;;;;;;0.88;0.82;;;15.90;99.90;;;;;;5087552;28;20305;-81
2023/10/05 07:50:40;;;;;;;1.02;1.02;;;13.90;99.90;;;;;;5087845;28;20350;-77
2023/10/05 07:53:06;;;;;;;0.20;0.20;;;16.00;99.90;;;;;;5082665;28;20028;-82
2023/10/05 07:55:31;;;;;;;0.30;0.30;;;16.00;99.90;;;;;;5080596;28;20441;-86
2023/10/05 07:57:57;;;;;;;0.10;0.10;;;16.10;99.90;;;;;;5079503;28;20024;-79
2023/10/05 08:00:23;;;;;;;0.10;0.10;;;13.80;99.90;;;;;;5077916;28;20024;-80
2023/10/05 08:02:49;;;;;;;1.13;1.13;;;16.20;99.90;;;;;;5061178;28;20089;-75
2023/10/05 08:05:15;;;;;;;0.10;0.10;;;16.30;99.90;;;;;;5081991;28;20093;-83
2023/10/05 08:07:44;;;;;;;2.20;2.08;;;16.40;99.90;;;;;;5068298;28;20066;-81
2023/10/05 08:10:15;;;;;;;0.77;0.77;;;16.50;99.90;;;;;;5079379;28;20024;-75
2023/10/05 08:12:43;;;;;;;0.70;0.70;;;16.60;99.90;;;;;;5080756;28;20034;-73
2023/10/05 08:15:12;;;;;;;1.55;1.45;;;16.60;99.90;;;;;;5084763;28;20040;-78
2023/10/05 08:17:39;;;;;;;0.30;0.30;;;16.60;99.90;;;;;;5083842;28;20043;-77
2023/10/05 08:20:06;;;;;;;1.10;1.10;;;16.80;99.90;;;;;;5063822;28;20378;-79
2023/10/05 08:22:33;;;;;;;0.20;0.20;;;16.80;99.90;;;;;;5079929;28;20303;-84
2023/10/05 08:25:00;;;;;;;2.17;2.08;;;16.90;99.90;;;;;;5079428;28;20430;-83
2023/10/05 08:27:26;;;;;;;1.17;0.75;;;16.90;99.90;;;;;;5081921;28;20115;-85
2023/10/05 08:29:52;;;;;;;0.08;0.08;;;17.20;99.90;;;;;;5082223;28;20048;-75
2023/10/05 08:32:24;;;;;;;0.10;0.10;;;17.30;99.90;;;;;;5081871;28;20016;-82
2023/10/05 08:34:50;;;;;;;2.28;1.55;;;19.20;99.90;;;;;;5081500;28;20420;-78
2023/10/05 08:37:19;;;;;;;0.20;0.20;;;17.50;99.90;;;;;;5063469;28;20024;-75
2023/10/05 08:39:46;;;;;;;0.75;0.75;;;20.30;99.90;;;;;;5082029;28;20445;-85
2023/10/05 08:42:16;;;;;;;0.10;0.10;;;17.70;99.90;;;;;;5063040;28;20020;-75
2023/10/05 08:44:43;;;;;;;0.40;0.40;;;18.00;99.90;;;;;;5081464;28;20445;-75
2023/10/05 08:47:12;;;;;;;0.40;0.40;;;17.90;99.90;;;;;;5081525;28;20391;-75
2023/10/05 08:49:39;;;;;;;0.20;0.20;;;15.50;99.90;;;;;;5081769;28;20021;-77
2023/10/05 08:52:18;;;;;;;9.23;2.60;;;18.00;99.90;;;;;;5081523;28;20043;-84
2023/10/05 08:54:46;;;;;;;0.98;0.85;;;18.20;99.90;;;;;;5081526;28;20066;-75
2023/10/05 08:57:16;;;;;;;0.10;0.10;;;18.40;99.90;;;;;;5082142;28;20020;-83
2023/10/05 08:59:46;;;;;;;0.45;0.45;;;18.50;99.90;;;;;;5081861;28;20012;-79
2023/10/05 09:02:18;;;;;;;0.10;0.10;;;18.50;99.90;;;;;;5081313;28;20036;-78
2023/10/05 09:05:00;;;;;;;1.60;1.45;;;18.50;99.90;;;;;;5081692;28;20386;-77
2023/10/05 09:07:35;;;;;;;0.43;0.43;;;18.20;99.90;;;;;;5081024;28;20228;-79
2023/10/05 09:10:05;;;;;;;1.65;1.55;;;18.80;99.90;;;;;;5081317;28;20016;-74
2023/10/05 09:12:35;;;;;;;0.10;0.10;;;18.90;99.90;;;;;;5080078;28;20016;-74
2023/10/05 09:15:22;;;;;;;0.90;0.90;;;21.10;99.90;;;;;;5081035;28;20142;-74
2023/10/05 09:18:00;;;;;;;0.10;0.10;;;18.90;99.90;;;;;;5080517;28;20363;-78
2023/10/05 09:20:36;;;;;;;0.30;0.30;;;18.80;99.90;;;;;;5080616;28;20296;-75
2023/10/05 09:23:10;;;;;;;2.13;1.30;;;19.10;99.90;;;;;;5080665;28;20311;-74
2023/10/05 09:25:38;;;;;;;1.55;1.27;;;19.10;99.90;;;;;;5080707;28;20250;-89
2023/10/05 09:28:14;;;;;;;0.10;0.10;;;19.00;99.90;;;;;;5081054;28;20039;-80
2023/10/05 09:30:51;;;;;;;0.17;0.17;;;19.20;99.90;;;;;;5081470;28;20044;-78
2023/10/05 09:33:18;;;;;;;0.10;0.10;;;19.40;99.90;;;;;;5079760;28;20054;-88
2023/10/05 09:35:47;;;;;;;0.30;0.30;;;19.40;99.90;;;;;;5080908;28;20026;-80
2023/10/05 09:38:21;;;;;;;2.70;2.47;;;19.20;99.90;;;;;;5080871;28;20012;-89
2023/10/05 09:40:48;;;;;;;0.10;0.10;;;17.00;99.90;;;;;;5081423;28;20050;-84
2023/10/05 09:43:21;;;;;;;0.20;0.20;;;19.40;99.90;;;;;;5081058;28;20024;-80
2023/10/05 09:45:54;;;;;;;1.73;1.65;;;19.40;99.90;;;;;;5080367;28;20579;-76
2023/10/05 09:48:21;;;;;;;0.40;0.40;;;18.90;99.90;;;;;;5080154;28;20136;-75
2023/10/05 09:50:48;;;;;;;0.20;0.20;;;19.70;99.90;;;;;;5080016;28;20051;-76
2023/10/05 09:53:19;;;;;;;0.40;0.40;;;19.80;99.90;;;;;;5079282;28;20024;-75
2023/10/05 09:55:53;;;;;;;0.77;0.77;;;19.80;99.90;;;;;;5079581;28;20441;-76
2023/10/05 09:58:20;;;;;;;0.17;0.17;;;19.70;99.90;;;;;;5062189;28;20028;-79
2023/10/05 10:03:14;;;;;;;0.10;0.10;;;19.90;99.90;;;;;;5079118;28;20035;-80
2023/10/05 10:05:55;;;;;;;0.10;0.10;;;20.40;99.90;;;;;;5079359;28;20027;-79
2023/10/05 10:08:31;;;;;;;0.20;0.20;;;20.70;99.90;;;;;;5060397;28;20461;-77
2023/10/05 10:11:06;;;;;;;1.08;0.77;;;21.00;99.90;;;;;;5079172;28;20016;-75
2023/10/05 10:13:37;;;;;;;0.68;0.68;;;21.10;99.90;;;;;;5079126;28;20041;-83
2023/10/05 10:16:21;;;;;;;0.10;0.10;;;19.80;99.90;;;;;;5079209;28;20073;-75
2023/10/05 10:18:47;;;;;;;0.60;0.60;;;21.80;99.90;;;;;;5080316;28;20059;-84
2023/10/05 10:21:35;;;;;;;0.20;0.20;;;22.50;99.90;;;;;;5079287;28;20120;-77
2023/10/05 10:24:06;;;;;;;0.85;0.85;;;21.90;99.90;;;;;;5079397;28;20363;-75
2023/10/05 10:27:14;;;;;;;0.20;0.20;;;21.90;99.90;;;;;;5079427;28;20510;-77
2023/10/05 10:29:52;;;;;;;0.45;0.45;;;21.90;99.90;;;;;;5075838;28;20047;-83
2023/10/05 10:32:19;;;;;;;0.85;0.85;;;21.80;99.90;;;;;;5040543;28;20044;-74
2023/10/05 10:34:55;;;;;;;0.30;0.30;;;21.10;99.90;;;;;;5059825;28;20024;-77
2023/10/05 10:37:48;;;;;;;0.10;0.10;;;21.90;99.90;;;;;;5059180;28;20048;-75
2023/10/05 10:45:41;;;;;;;0.35;0.35;;;22.30;99.90;;;;;;5059910;28;20293;-79
2023/10/05 10:48:12;;;;;;;0.10;0.10;;;22.10;99.90;;;;;;5058651;28;20055;-81
2023/10/05 10:50:39;;;;;;;1.80;1.70;;;21.80;99.90;;;;;;5041189;28;20052;-81
2023/10/05 10:53:16;;;;;;;0.85;0.85;;;22.10;99.90;;;;;;5058811;28;20056;-86
2023/10/05 10:56:27;;;;;;;4.78;2.90;;;22.20;99.90;;;;;;5058796;28;20020;-75
2023/10/05 10:59:08;;;;;;;0.75;0.60;;;22.60;99.90;;;;;;5066509;28;20300;-76
2023/10/05 11:04:31;;;;;;;0.40;0.40;;;22.60;99.90;;;;;;5063568;28;20032;-81
2023/10/05 11:07:05;;;;;;;0.05;0.05;;;23.00;99.90;;;;;;5061765;28;20113;-78
2023/10/05 11:09:37;;;;;;;0.10;0.10;;;23.10;99.90;;;;;;5060451;28;20509;-78
2023/10/05 11:12:11;;;;;;;0.13;0.13;;;23.20;99.90;;;;;;5041334;28;20165;-77
2023/10/05 11:14:45;;;;;;;1.10;0.82;;;23.40;99.90;;;;;;5058103;28;20511;-74
2023/10/05 11:17:30;;;;;;;0.10;0.10;;;23.50;99.90;;;;;;5059463;28;20081;-87
2023/10/05 11:19:58;;;;;;;0.98;0.98;;;23.80;99.90;;;;;;5059189;28;20305;-88
2023/10/05 11:22:23;;;;;;;0.10;0.10;;;23.80;99.90;;;;;;5060153;28;20128;-86
2023/10/05 11:25:16;;;;;;;6.80;3.05;;;23.90;99.90;;;;;;5059573;28;20107;-82
2023/10/05 11:27:56;;;;;;;1.00;1.00;;;24.20;99.90;;;;;;5060165;28;20341;-89
2023/10/05 11:30:26;;;;;;;0.10;0.10;;;24.20;99.80;;;;;;5068833;28;20290;-88
2023/10/05 11:32:56;;;;;;;0.10;0.10;;;24.30;99.90;;;;;;5079204;28;20035;-85
2023/10/05 11:35:29;;;;;;;0.55;0.55;;;24.40;99.50;;;;;;5079971;28;20502;-80
2023/10/05 11:37:59;;;;;;;0.30;0.30;;;24.60;99.90;;;;;;5061808;28;20020;-83
2023/10/05 11:40:31;;;;;;;1.08;1.02;;;25.10;99.40;;;;;;5078154;28;20025;-87
2023/10/05 11:42:56;;;;;;;0.10;0.10;;;24.80;98.60;;;;;;5080211;28;20253;-76
2023/10/05 11:45:23;;;;;;;0.10;0.10;;;24.50;98.80;;;;;;5079319;28;20020;-82
2023/10/05 11:47:53;;;;;;;3.30;1.98;;;24.80;99.20;;;;;;5078679;28;20421;-83
2023/10/05 11:50:32;;;;;;;1.20;1.17;;;24.90;98.60;;;;;;5079075;28;20016;-74
2023/10/05 11:52:59;;;;;;;0.52;0.47;;;25.00;98.30;;;;;;5060200;28;20437;-84
2023/10/05 11:55:25;;;;;;;0.15;0.15;;;25.00;98.10;;;;;;5082464;28;20024;-82
2023/10/05 11:57:52;;;;;;;0.57;0.57;;;25.50;98.60;;;;;;5067495;28;20036;-78
2023/10/05 12:00:18;;;;;;;0.38;0.38;;;24.70;98.60;;;;;;5083981;28;20035;-76
2023/10/05 12:02:45;;;;;;;0.70;0.70;;;24.50;98.10;;;;;;5086414;28;20027;-74
2023/10/05 12:05:12;;;;;;;0.10;0.10;;;25.00;97.90;;;;;;5087759;28;20012;-76
2023/10/05 12:07:47;;;;;;;4.38;0.88;;;24.90;98.60;;;;;;5066085;28;20111;-81
2023/10/05 12:10:13;;;;;;;4.10;3.80;;;25.20;98.50;;;;;;5082998;28;20510;-75
2023/10/05 12:12:45;;;;;;;2.45;1.65;;;25.10;97.90;;;;;;5063668;28;20517;-82
2023/10/05 12:15:14;;;;;;;3.65;1.65;;;25.30;97.70;;;;;;5082847;28;20241;-83
2023/10/05 12:17:40;;;;;;;0.65;0.65;;;25.60;97.30;;;;;;5082304;28;20568;-82
2023/10/05 12:20:08;;;;;;;1.27;1.15;;;22.20;96.00;;;;;;5081375;28;20086;-81
2023/10/05 12:22:37;;;;;;;0.13;0.13;;;25.70;96.90;;;;;;5082335;28;20084;-78
2023/10/05 12:25:07;;;;;;;1.75;1.48;;;25.90;96.70;;;;;;5082400;28;20020;-90
2023/10/05 12:27:35;;;;;;;0.80;0.65;;;26.00;96.10;;;;;;5082238;28;20077;-81
2023/10/05 12:30:11;;;;;;;1.17;0.90;;;26.10;96.10;;;;;;5064008;28;20055;-79
2023/10/05 12:32:40;;;;;;;1.75;0.90;;;26.30;95.60;;;;;;5082752;28;20430;-79
2023/10/05 12:35:16;;;;;;;0.20;0.20;;;26.60;95.50;;;;;;5086730;28;20165;-78
2023/10/05 12:37:46;;;;;;;0.88;0.82;;;27.00;95.10;;;;;;5088226;28;20012;-85
2023/10/05 12:40:18;;;;;;;3.40;1.10;;;26.90;95.10;;;;;;5090298;28;20020;-84
2023/10/05 12:42:54;;;;;;;0.00;0.00;;;26.90;94.70;;;;;;5089762;28;20020;-77
2023/10/05 12:45:22;;;;;;;3.67;2.00;;;26.80;94.40;;;;;;5084806;28;20356;-76
2023/10/05 12:47:55;;;;;;;0.10;0.10;;;27.00;94.00;;;;;;5084640;28;20040;-84
2023/10/05 12:50:25;;;;;;;0.75;0.73;;;27.10;94.00;;;;;;5083626;28;20058;-86
2023/10/05 12:52:51;;;;;;;0.10;0.10;;;;;;;;;;5064879;28;20403;-86
2023/10/05 12:55:26;;;;;;;2.45;0.65;;;27.20;93.40;;;;;;5083020;28;20382;-80
2023/10/05 12:57:53;;;;;;;0.57;0.52;;;27.00;94.20;;;;;;5081198;28;20514;-76
2023/10/05 13:00:39;;;;;;;0.85;0.73;;;26.90;93.90;;;;;;5081873;28;20054;-86
2023/10/05 13:03:05;;;;;;;1.27;1.17;;;27.10;94.00;;;;;;5082238;28;20160;-85
2023/10/05 13:05:39;;;;;;;0.20;0.20;;;27.10;93.80;;;;;;5081590;28;20017;-87
2023/10/05 13:08:10;;;;;;;0.88;0.88;;;27.10;93.90;;;;;;5063268;28;20050;-81
2023/10/05 13:10:37;;;;;;;0.28;0.28;;;27.20;93.70;;;;;;5062194;28;20045;-78
2023/10/05 13:13:10;;;;;;;0.32;0.32;;;27.50;93.60;;;;;;5063070;28;20544;-86
2023/10/05 13:15:36;;;;;;;1.40;0.90;;;27.50;93.70;;;;;;5081946;28;20042;-78
2023/10/05 13:18:17;;;;;;;0.28;0.28;;;28.10;92.20;;;;;;5081741;28;20381;-85
2023/10/05 13:20:45;;;;;;;2.47;0.45;;;27.90;92.00;;;;;;5081961;28;20312;-79
2023/10/05 13:23:11;;;;;;;0.10;0.10;;;27.90;92.20;;;;;;5081164;28;20506;-86
2023/10/05 13:25:39;;;;;;;0.70;0.70;;;27.80;91.60;;;;;;5080725;28;20032;-87
2023/10/05 13:28:11;;;;;;;0.10;0.10;;;27.70;92.00;;;;;;5081174;28;20186;-78
2023/10/05 13:30:46;;;;;;;0.98;0.95;;;;;;;;;;5063306;28;20105;-76
2023/10/05 13:33:21;;;;;;;0.10;0.10;;;27.60;91.80;;;;;;5081312;28;20307;-84